KMFV/MFV METAR and TAF weather

Enter ICAO airport designator
Station Type Date Time Source
KMFV METAR 2020/09/18 19:35 UTC NOAA

KMFV 181935Z AUTO 36010G21KT 10SM BKN020 BKN028 OVC055 22/17 A2990 RMK AO2 T02240169


Station Type Date Time Source
KMFV Decoded METAR 2020/09/18 19:35 UTC NOAA

Melfa / Accomack Airport, VA, United States (KMFV) 37-39N 075-46W
Sep 18, 2020 - 03:35 PM EDT / 2020.09.18 1935 UTC
Wind: from the N (360 degrees) at 12 MPH (10 KT) gusting to 24 MPH (21 KT):0
Visibility: 10 mile(s):0
Sky conditions: overcast
Temperature: 72.3 F (22.4 C)
Dew Point: 62.4 F (16.9 C)
Relative Humidity: 71%
Pressure (altimeter): 29.9 in. Hg (1012 hPa)
ob: KMFV 181935Z AUTO 36010G21KT 10SM BKN020 BKN028 OVC055 22/17 A2990 RMK AO2 T02240169
cycle: 19

Station Type Date Time Source
KMFV TAF UTC NOAA

Error!

Example: see airport list